EPWA

Warsaw Chopin Airport

Warsaw, Poland
METAR EPWA 141730Z 06006KT 9999 -RASN FEW009 BKN019 01/M01 Q1027 NOSIG
Observed Flight Rules
Dec-14 @ 17:30 UTC (29 minutes ago) Marginal Visual Flight Rules
Wind Visibility Clouds Conditions
60° at 6 knots 10,000+ meters
  • Few at 900' AGL
  • Broken at 1,900' AGL
  • Light Rain
  • Light Snow
Temperatures Readings
Current 1°C / 34°F
Dewpoint -1°C / 30°F
Humidity 87%
Altimeter 30.32" Hg
Pressure 1027 hPa
Elevation 107
METAR EPWA 141730Z 06006KT 9999 -RASN FEW009 BKN019 01/M01 Q1027 NOSIG
Observed Flight Rules
Dec-14 @ 17:30 UTC
(29 minutes ago)
MVFR
Wind Visibility
60° at 6 knots 10,000+ meters
Clouds
  • Few at 900' AGL
  • Broken at 1,900' AGL
Conditions
  • Light Rain
  • Light Snow
Temperature Dewpoint
1°C / 34°F -1°C / 30°F
Humidity Altimeter Pressure
87% 30.32" Hg 1027 hPa